createdAt,value
2022-11-05T00:00:43.575Z,34
2022-11-05T00:01:53.313Z,44
2022-11-05T00:03:02.896Z,38
2022-11-05T00:04:12.173Z,47
2022-11-05T00:05:21.834Z,50
2022-11-05T00:06:31.530Z,46
2022-11-05T00:07:41.210Z,48
2022-11-05T00:08:50.768Z,49
2022-11-05T00:10:00.478Z,42
2022-11-05T00:11:04.729Z,44
2022-11-05T00:12:09.175Z,47
2022-11-05T00:13:18.853Z,48
2022-11-05T00:14:28.354Z,47
2022-11-05T00:15:37.626Z,46
2022-11-05T00:16:47.402Z,46
2022-11-05T00:17:52.069Z,42
2022-11-05T00:18:56.521Z,49
2022-11-05T00:20:05.846Z,44
2022-11-05T00:21:10.466Z,44
2022-11-05T00:22:19.985Z,36
2022-11-05T00:23:29.580Z,32
2022-11-05T00:24:39.250Z,43
2022-11-05T00:25:48.917Z,41
2022-11-05T00:26:58.243Z,37
2022-11-05T00:28:02.757Z,34
2022-11-05T00:29:06.907Z,29
2022-11-05T00:30:10.953Z,42
2022-11-05T00:31:15.405Z,44
2022-11-05T00:32:20.078Z,38
2022-11-05T00:33:24.501Z,44
2022-11-05T00:34:28.638Z,39
2022-11-05T00:35:32.870Z,40
2022-11-05T00:36:37.398Z,31
2022-11-05T00:37:45.710Z,31
2022-11-05T00:38:46.033Z,30
2022-11-05T00:39:50.200Z,37
2022-11-05T00:40:54.837Z,30
2022-11-05T00:41:59.452Z,35
2022-11-05T00:43:09.321Z,36
2022-11-05T00:44:18.702Z,34
2022-11-05T00:45:28.274Z,34
2022-11-05T00:46:32.478Z,42
2022-11-05T00:47:36.989Z,28
2022-11-05T00:48:46.668Z,30
2022-11-05T00:49:56.419Z,30
2022-11-05T00:51:00.581Z,38
2022-11-05T00:52:04.649Z,36
2022-11-05T00:53:14.521Z,39
2022-11-05T00:54:18.783Z,35
2022-11-05T00:55:23.386Z,27
2022-11-05T00:56:30.559Z,32
2022-11-05T00:57:35.233Z,32
2022-11-05T00:58:39.620Z,37
2022-11-05T00:59:43.780Z,27
2022-11-05T01:00:48.382Z,35
2022-11-05T01:01:53.045Z,29
2022-11-05T01:02:57.662Z,30
2022-11-05T01:04:02.188Z,26
2022-11-05T01:05:06.756Z,29
2022-11-05T01:06:11.329Z,28
2022-11-05T01:07:15.841Z,30
2022-11-05T01:08:20.470Z,25
2022-11-05T01:09:25.053Z,25
2022-11-05T01:10:29.630Z,25
2022-11-05T01:11:34.272Z,43
2022-11-05T01:12:38.848Z,31
2022-11-05T01:13:43.469Z,27
2022-11-05T01:14:48.002Z,32
2022-11-05T01:15:52.197Z,36
2022-11-05T01:16:56.893Z,28
2022-11-05T01:18:01.480Z,34
2022-11-05T01:19:06.450Z,31
2022-11-05T01:20:10.684Z,28
2022-11-05T01:21:15.095Z,31
2022-11-05T01:22:19.605Z,31
2022-11-05T01:23:23.689Z,32
2022-11-05T01:24:28.308Z,30
2022-11-05T01:25:32.877Z,42
2022-11-05T01:26:37.437Z,33
2022-11-05T01:27:41.616Z,34
2022-11-05T01:28:46.324Z,36
2022-11-05T01:29:53.591Z,36
2022-11-05T01:30:58.092Z,31
2022-11-05T01:32:02.530Z,33
2022-11-05T01:33:06.640Z,35
2022-11-05T01:34:10.833Z,32
2022-11-05T01:35:15.132Z,39
2022-11-05T01:36:19.736Z,45
2022-11-05T01:37:24.305Z,37
2022-11-05T01:38:28.426Z,42
2022-11-05T01:39:33.030Z,40
2022-11-05T01:40:37.132Z,41
2022-11-05T01:41:41.394Z,44
2022-11-05T01:42:45.744Z,41
2022-11-05T01:43:49.857Z,43
2022-11-05T01:44:54.157Z,42
2022-11-05T01:45:58.536Z,44
2022-11-05T01:47:02.805Z,31
2022-11-05T01:48:07.509Z,33
2022-11-05T01:49:12.146Z,32
2022-11-05T01:50:24.487Z,26
2022-11-05T01:51:36.602Z,42
2022-11-05T01:52:40.770Z,39
2022-11-05T01:53:44.856Z,39
2022-11-05T01:54:52.204Z,40
2022-11-05T01:55:56.745Z,38
2022-11-05T01:57:06.472Z,37
2022-11-05T01:58:10.988Z,36
2022-11-05T01:59:15.586Z,32
2022-11-05T02:00:25.112Z,37
2022-11-05T02:01:29.431Z,38
2022-11-05T02:02:33.964Z,39
2022-11-05T02:03:38.397Z,32
2022-11-05T02:04:42.468Z,43
2022-11-05T02:05:49.744Z,33
2022-11-05T02:06:54.236Z,38
2022-11-05T02:07:58.344Z,38
2022-11-05T02:09:02.464Z,36
2022-11-05T02:10:09.610Z,34
2022-11-05T02:11:16.608Z,33
2022-11-05T02:12:21.265Z,42
2022-11-05T02:13:25.748Z,29
2022-11-05T02:14:30.349Z,34
2022-11-05T02:15:34.453Z,34
2022-11-05T02:16:44.218Z,25
2022-11-05T02:17:58.992Z,27
2022-11-05T02:19:08.742Z,36
2022-11-05T02:20:20.657Z,34
2022-11-05T02:21:35.686Z,36
2022-11-05T02:22:47.923Z,37
2022-11-05T02:23:55.505Z,36
2022-11-05T02:25:10.348Z,35
2022-11-05T02:26:24.945Z,32
2022-11-05T02:27:32.048Z,38
2022-11-05T02:28:44.440Z,31
2022-11-05T02:29:59.265Z,38
2022-11-05T02:31:06.283Z,40
2022-11-05T02:32:15.635Z,31
2022-11-05T02:33:20.001Z,34
2022-11-05T02:34:29.645Z,34
2022-11-05T02:35:41.865Z,38
2022-11-05T02:36:56.677Z,29
2022-11-05T02:38:06.389Z,30
2022-11-05T02:39:21.172Z,30
2022-11-05T02:40:30.753Z,35
2022-11-05T02:41:42.976Z,30
2022-11-05T02:42:50.209Z,30
2022-11-05T02:43:57.801Z,30
2022-11-05T02:45:12.663Z,29
2022-11-05T02:46:22.116Z,34
2022-11-05T02:47:31.922Z,39
2022-11-05T02:48:42.172Z,41
2022-11-05T02:49:51.844Z,47
2022-11-05T02:50:58.876Z,47
2022-11-05T02:52:06.010Z,41
2022-11-05T02:53:15.726Z,42
2022-11-05T02:54:25.116Z,48
2022-11-05T02:55:37.448Z,54
2022-11-05T02:56:49.625Z,58
2022-11-05T02:57:53.788Z,51
2022-11-05T02:58:58.404Z,59
2022-11-05T03:00:02.504Z,58
2022-11-05T03:01:07.193Z,61
2022-11-05T03:02:14.585Z,68
2022-11-05T03:03:18.676Z,71
2022-11-05T03:04:31.082Z,73
2022-11-05T03:05:35.733Z,76
2022-11-05T03:06:47.869Z,80
2022-11-05T03:08:02.632Z,88
2022-11-05T03:09:07.204Z,89
2022-11-05T03:10:21.819Z,83
2022-11-05T03:11:31.536Z,92
2022-11-05T03:12:41.333Z,91
2022-11-05T03:13:45.824Z,88
2022-11-05T03:14:53.077Z,101
2022-11-05T03:16:02.798Z,99
2022-11-05T03:17:07.278Z,107
2022-11-05T03:18:14.451Z,118
2022-11-05T03:19:21.905Z,115
2022-11-05T03:20:31.764Z,123
2022-11-05T03:21:36.304Z,131
2022-11-05T03:22:48.536Z,112
2022-11-05T03:23:53.064Z,112
2022-11-05T03:24:57.384Z,113
2022-11-05T03:26:01.941Z,105
2022-11-05T03:27:14.676Z,110
2022-11-05T03:28:21.736Z,108
2022-11-05T03:29:26.231Z,112
2022-11-05T03:30:33.409Z,107
2022-11-05T03:31:37.920Z,104
2022-11-05T03:32:42.624Z,105
2022-11-05T03:33:47.220Z,105
2022-11-05T03:34:51.863Z,107
2022-11-05T03:36:01.604Z,104
2022-11-05T03:37:09.069Z,93
2022-11-05T03:38:13.378Z,103
2022-11-05T03:39:22.633Z,100
2022-11-05T03:40:29.933Z,106
2022-11-05T03:41:34.508Z,101
2022-11-05T03:42:38.646Z,103
2022-11-05T03:43:43.224Z,102
2022-11-05T03:44:47.888Z,96
2022-11-05T03:45:52.349Z,98
2022-11-05T03:46:56.576Z,102
2022-11-05T03:48:03.797Z,101
2022-11-05T03:49:08.407Z,103
2022-11-05T03:50:13.021Z,104
2022-11-05T03:51:22.812Z,110
2022-11-05T03:52:37.364Z,121
2022-11-05T03:53:41.813Z,115
2022-11-05T03:54:51.014Z,119
2022-11-05T03:55:55.193Z,124
2022-11-05T03:57:04.355Z,117
2022-11-05T03:58:08.556Z,107
2022-11-05T03:59:13.102Z,117
2022-11-05T04:00:17.429Z,109
2022-11-05T04:01:21.660Z,117
2022-11-05T04:02:26.002Z,111
2022-11-05T04:03:30.232Z,115
2022-11-05T04:04:34.352Z,114
2022-11-05T04:05:38.920Z,109
2022-11-05T04:06:43.076Z,111
2022-11-05T04:07:52.680Z,111
2022-11-05T04:09:01.920Z,110
2022-11-05T04:10:11.250Z,110
2022-11-05T04:11:21.780Z,112
2022-11-05T04:12:31.351Z,120
2022-11-05T04:13:41.091Z,115
2022-11-05T04:14:45.641Z,111
2022-11-05T04:15:49.828Z,125
2022-11-05T04:16:59.487Z,118
2022-11-05T04:18:09.123Z,112
2022-11-05T04:19:13.619Z,121
2022-11-05T04:20:18.236Z,115
2022-11-05T04:21:28.016Z,115
2022-11-05T04:22:37.532Z,111
2022-11-05T04:23:46.751Z,110
2022-11-05T04:24:56.563Z,106
2022-11-05T04:26:01.172Z,111
2022-11-05T04:27:05.724Z,109
2022-11-05T04:28:10.349Z,104
2022-11-05T04:29:14.913Z,109
2022-11-05T04:30:24.339Z,109
2022-11-05T04:31:28.383Z,103
2022-11-05T04:32:32.932Z,102
2022-11-05T04:33:37.131Z,108
2022-11-05T04:34:41.399Z,102
2022-11-05T04:35:45.951Z,105
2022-11-05T04:36:50.560Z,105
2022-11-05T04:37:55.132Z,102
2022-11-05T04:38:59.272Z,99
2022-11-05T04:40:03.975Z,101
2022-11-05T04:41:08.547Z,100
2022-11-05T04:42:13.034Z,104
2022-11-05T04:43:17.854Z,94
2022-11-05T04:44:21.535Z,100
2022-11-05T04:45:25.691Z,108
2022-11-05T04:46:30.300Z,97
2022-11-05T04:47:34.879Z,93
2022-11-05T04:48:39.412Z,94
2022-11-05T04:49:43.460Z,95
2022-11-05T04:50:47.784Z,94
2022-11-05T04:51:52.236Z,94
2022-11-05T04:52:56.483Z,87
2022-11-05T04:54:00.974Z,89
2022-11-05T04:55:05.607Z,92
2022-11-05T04:56:09.743Z,88
2022-11-05T04:57:13.855Z,80
2022-11-05T04:58:18.171Z,87
2022-11-05T04:59:22.216Z,89
2022-11-05T05:00:26.376Z,87
2022-11-05T05:01:31.040Z,88
2022-11-05T05:02:35.227Z,85
2022-11-05T05:03:39.691Z,80
2022-11-05T05:04:43.783Z,88
2022-11-05T05:05:47.851Z,90
2022-11-05T05:06:52.087Z,89
2022-11-05T05:07:56.631Z,85
2022-11-05T05:09:03.838Z,82
2022-11-05T05:10:08.375Z,84
2022-11-05T05:11:12.598Z,87
2022-11-05T05:12:17.156Z,86
2022-11-05T05:13:21.556Z,82
2022-11-05T05:14:26.151Z,84
2022-11-05T05:15:30.687Z,76
2022-11-05T05:16:35.260Z,75
2022-11-05T05:17:39.328Z,81
2022-11-05T05:18:46.159Z,77
2022-11-05T05:19:48.000Z,84
2022-11-05T05:20:57.759Z,78
2022-11-05T05:22:07.307Z,77
2022-11-05T05:23:14.614Z,81
2022-11-05T05:24:19.146Z,71
2022-11-05T05:25:23.597Z,69
2022-11-05T05:26:28.189Z,74
2022-11-05T05:27:32.344Z,82
2022-11-05T05:28:36.448Z,76
2022-11-05T05:29:40.996Z,75
2022-11-05T05:30:45.187Z,69
2022-11-05T05:31:49.715Z,63
2022-11-05T05:32:54.276Z,67
2022-11-05T05:33:58.375Z,74
2022-11-05T05:35:02.507Z,70
2022-11-05T05:36:11.007Z,67
2022-11-05T05:37:11.239Z,71
2022-11-05T05:38:15.829Z,74
2022-11-05T05:39:20.259Z,65
2022-11-05T05:40:24.461Z,74
2022-11-05T05:41:28.999Z,63
2022-11-05T05:42:35.384Z,71
2022-11-05T05:43:37.215Z,72
2022-11-05T05:44:41.412Z,74
2022-11-05T05:45:45.343Z,65
2022-11-05T05:46:49.544Z,63
2022-11-05T05:47:53.984Z,66
2022-11-05T05:48:58.239Z,64
2022-11-05T05:50:02.311Z,63
2022-11-05T05:51:07.057Z,59
2022-11-05T05:52:11.555Z,58
2022-11-05T05:53:16.148Z,59
2022-11-05T05:54:20.567Z,59
2022-11-05T05:55:25.280Z,59
2022-11-05T05:56:29.904Z,64
2022-11-05T05:57:34.500Z,67
2022-11-05T05:58:39.090Z,65
2022-11-05T05:59:43.744Z,63
2022-11-05T06:00:48.231Z,57
2022-11-05T06:01:52.951Z,66
2022-11-05T06:02:57.461Z,60
2022-11-05T06:04:01.540Z,60
2022-11-05T06:05:06.035Z,76
2022-11-05T06:06:10.302Z,58
2022-11-05T06:07:14.817Z,64
2022-11-05T06:08:19.195Z,64
2022-11-05T06:09:23.795Z,65
2022-11-05T06:10:28.436Z,57
2022-11-05T06:11:33.075Z,63
2022-11-05T06:12:37.143Z,57
2022-11-05T06:13:41.660Z,57
2022-11-05T06:14:46.252Z,62
2022-11-05T06:15:50.400Z,60
2022-11-05T06:16:55.031Z,61
2022-11-05T06:17:59.524Z,56
2022-11-05T06:19:03.985Z,54
2022-11-05T06:20:08.222Z,62
2022-11-05T06:21:12.815Z,61
2022-11-05T06:22:17.112Z,48
2022-11-05T06:23:21.374Z,54
2022-11-05T06:24:25.947Z,58
2022-11-05T06:25:30.685Z,50
2022-11-05T06:26:35.238Z,50
2022-11-05T06:27:39.796Z,49
2022-11-05T06:28:44.439Z,56
2022-11-05T06:29:48.877Z,49
2022-11-05T06:30:53.515Z,51
2022-11-05T06:31:57.636Z,53
2022-11-05T06:33:01.623Z,58
2022-11-05T06:34:05.853Z,60
2022-11-05T06:35:09.922Z,59
2022-11-05T06:36:14.577Z,63
2022-11-05T06:37:18.861Z,55
2022-11-05T06:38:22.994Z,57
2022-11-05T06:39:27.579Z,55
2022-11-05T06:40:32.157Z,55
2022-11-05T06:41:50.924Z,57
2022-11-05T06:42:41.192Z,58
2022-11-05T06:43:45.417Z,61
2022-11-05T06:44:50.093Z,49
2022-11-05T06:45:55.178Z,55
2022-11-05T06:46:59.673Z,52
2022-11-05T06:48:03.841Z,55
2022-11-05T06:49:07.929Z,51
2022-11-05T06:50:12.117Z,55
2022-11-05T06:51:16.729Z,55
2022-11-05T06:52:21.028Z,56
2022-11-05T06:53:25.165Z,56
2022-11-05T06:54:29.629Z,54
2022-11-05T06:55:33.982Z,54
2022-11-05T06:56:38.565Z,55
2022-11-05T06:57:43.737Z,59
2022-11-05T06:58:48.149Z,57
2022-11-05T06:59:55.799Z,60
2022-11-05T07:00:56.889Z,63
2022-11-05T07:02:01.588Z,62
2022-11-05T07:03:06.018Z,64
2022-11-05T07:04:10.149Z,63
2022-11-05T07:05:14.614Z,70
2022-11-05T07:06:18.803Z,77
2022-11-05T07:07:23.097Z,69
2022-11-05T07:08:27.326Z,66
2022-11-05T07:09:31.909Z,64
2022-11-05T07:10:37.498Z,66
2022-11-05T07:11:43.037Z,69
2022-11-05T07:12:47.744Z,63
2022-11-05T07:13:52.317Z,63
2022-11-05T07:14:57.315Z,61
2022-11-05T07:16:01.545Z,62
2022-11-05T07:17:06.222Z,62
2022-11-05T07:18:10.714Z,71
2022-11-05T07:19:14.706Z,71
2022-11-05T07:20:18.997Z,62
2022-11-05T07:21:24.108Z,67
2022-11-05T07:22:29.454Z,73
2022-11-05T07:23:34.690Z,77
2022-11-05T07:24:39.898Z,74
2022-11-05T07:25:44.589Z,79
2022-11-05T07:26:49.367Z,79
2022-11-05T07:27:54.617Z,77
2022-11-05T07:29:00.054Z,74
2022-11-05T07:30:05.218Z,78
2022-11-05T07:31:11.227Z,75
2022-11-05T07:32:16.616Z,77
2022-11-05T07:33:21.206Z,71
2022-11-05T07:34:26.186Z,86
2022-11-05T07:35:30.482Z,79
2022-11-05T07:36:35.117Z,77
2022-11-05T07:37:39.683Z,77
2022-11-05T07:38:44.231Z,77
2022-11-05T07:39:48.326Z,80
2022-11-05T07:40:52.434Z,83
2022-11-05T07:41:56.610Z,75
2022-11-05T07:43:01.154Z,71
2022-11-05T07:44:05.291Z,76
2022-11-05T07:45:09.858Z,70
2022-11-05T07:46:14.131Z,77
2022-11-05T07:47:18.592Z,79
2022-11-05T07:48:23.050Z,68
2022-11-05T07:49:27.538Z,70
2022-11-05T07:50:31.670Z,65
2022-11-05T07:51:36.294Z,80
2022-11-05T07:52:41.050Z,69
2022-11-05T07:53:45.820Z,69
2022-11-05T07:54:49.599Z,62
2022-11-05T07:55:54.575Z,69
2022-11-05T07:56:58.766Z,66
2022-11-05T07:58:02.974Z,68
2022-11-05T07:59:07.543Z,70
2022-11-05T08:00:12.222Z,69
2022-11-05T08:01:17.130Z,67
2022-11-05T08:02:21.418Z,68
2022-11-05T08:03:25.891Z,66
2022-11-05T08:04:30.347Z,64
2022-11-05T08:05:34.398Z,67
2022-11-05T08:06:38.548Z,63
2022-11-05T08:07:43.138Z,68
2022-11-05T08:08:47.686Z,66
2022-11-05T08:09:51.818Z,59
2022-11-05T08:10:55.971Z,57
2022-11-05T08:12:03.547Z,68
2022-11-05T08:13:07.882Z,60
2022-11-05T08:14:12.383Z,58
2022-11-05T08:15:17.022Z,57
2022-11-05T08:16:21.398Z,54
2022-11-05T08:17:26.662Z,60
2022-11-05T08:18:31.082Z,62
2022-11-05T08:19:35.714Z,59
2022-11-05T08:20:40.351Z,67
2022-11-05T08:21:44.814Z,57
2022-11-05T08:22:49.390Z,63
2022-11-05T08:23:54.036Z,60
2022-11-05T08:25:02.706Z,58
2022-11-05T08:26:03.223Z,59
2022-11-05T08:27:07.878Z,60
2022-11-05T08:28:12.557Z,64
2022-11-05T08:29:17.894Z,61
2022-11-05T08:30:22.298Z,61
2022-11-05T08:31:27.004Z,61
2022-11-05T08:32:31.603Z,64
2022-11-05T08:33:35.942Z,57
2022-11-05T08:34:40.386Z,57
2022-11-05T08:35:45.059Z,61
2022-11-05T08:36:49.461Z,60
2022-11-05T08:37:53.562Z,61
2022-11-05T08:39:00.704Z,67
2022-11-05T08:40:05.330Z,60
2022-11-05T08:41:09.982Z,65
2022-11-05T08:42:14.650Z,67
2022-11-05T08:43:19.161Z,70
2022-11-05T08:44:23.694Z,82
2022-11-05T08:45:28.271Z,82
2022-11-05T08:46:35.419Z,73
2022-11-05T08:47:37.510Z,83
2022-11-05T08:48:42.066Z,83
2022-11-05T08:49:46.309Z,86
2022-11-05T08:50:50.783Z,91
2022-11-05T08:51:55.386Z,87
2022-11-05T08:52:59.940Z,86
2022-11-05T08:54:04.778Z,85
2022-11-05T08:55:09.242Z,84
2022-11-05T08:56:13.738Z,97
2022-11-05T08:57:18.399Z,89
2022-11-05T08:58:22.969Z,87
2022-11-05T08:59:27.374Z,92
2022-11-05T09:00:31.446Z,90
2022-11-05T09:01:35.757Z,90
2022-11-05T09:02:40.198Z,87
2022-11-05T09:03:44.173Z,95
2022-11-05T09:04:48.474Z,85
2022-11-05T09:05:52.885Z,81
2022-11-05T09:06:57.100Z,77
2022-11-05T09:08:01.864Z,88
2022-11-05T09:09:09.378Z,90
2022-11-05T09:10:13.845Z,98
2022-11-05T09:11:18.562Z,102
2022-11-05T09:12:22.871Z,110
2022-11-05T09:13:27.908Z,101
2022-11-05T09:14:32.397Z,110
2022-11-05T09:15:36.661Z,107
2022-11-05T09:16:41.277Z,114
2022-11-05T09:17:45.932Z,115
2022-11-05T09:18:50.567Z,112
2022-11-05T09:19:55.069Z,114
2022-11-05T09:20:59.646Z,121
2022-11-05T09:22:04.345Z,126
2022-11-05T09:23:09.195Z,122
2022-11-05T09:24:13.665Z,122
2022-11-05T09:25:18.087Z,125
2022-11-05T09:26:22.455Z,125
2022-11-05T09:27:26.592Z,127
2022-11-05T09:28:31.149Z,125
2022-11-05T09:29:35.298Z,131
2022-11-05T09:30:39.813Z,117
2022-11-05T09:31:44.460Z,125
2022-11-05T09:32:49.145Z,126
2022-11-05T09:33:53.638Z,116
2022-11-05T09:34:58.221Z,117
2022-11-05T09:36:02.885Z,107
2022-11-05T09:37:07.384Z,115
2022-11-05T09:38:12.097Z,113
2022-11-05T09:39:16.684Z,121
2022-11-05T09:40:21.432Z,108
2022-11-05T09:41:25.629Z,108
2022-11-05T09:42:32.826Z,109
2022-11-05T09:43:37.571Z,116
2022-11-05T09:44:42.200Z,118
2022-11-05T09:45:49.141Z,110
2022-11-05T09:46:53.325Z,109
2022-11-05T09:47:57.813Z,115
2022-11-05T09:49:02.496Z,110
2022-11-05T09:50:07.040Z,107
2022-11-05T09:51:16.868Z,119
2022-11-05T09:52:18.853Z,128
2022-11-05T09:53:28.410Z,115
2022-11-05T09:54:32.933Z,115
2022-11-05T09:55:37.416Z,114
2022-11-05T09:56:44.648Z,112
2022-11-05T09:57:48.944Z,117
2022-11-05T09:58:56.228Z,122
2022-11-05T10:00:06.021Z,122
2022-11-05T10:01:11.015Z,119
2022-11-05T10:02:15.949Z,125
2022-11-05T10:03:20.390Z,120
2022-11-05T10:04:24.873Z,120
2022-11-05T10:05:29.160Z,122
2022-11-05T10:06:33.661Z,118
2022-11-05T10:07:38.193Z,118
2022-11-05T10:08:45.449Z,113
2022-11-05T10:09:52.586Z,116
2022-11-05T10:10:59.812Z,122
2022-11-05T10:12:12.368Z,113
2022-11-05T10:13:16.570Z,121
2022-11-05T10:14:31.156Z,124
2022-11-05T10:15:35.346Z,119
2022-11-05T10:16:39.836Z,118
2022-11-05T10:17:44.033Z,118
2022-11-05T10:18:51.464Z,125
2022-11-05T10:19:55.809Z,113
2022-11-05T10:21:07.987Z,119
2022-11-05T10:22:17.272Z,119
2022-11-05T10:23:21.690Z,117
2022-11-05T10:24:26.273Z,119
2022-11-05T10:25:30.897Z,119
2022-11-05T10:26:35.564Z,123
2022-11-05T10:27:40.189Z,112
2022-11-05T10:28:44.688Z,107
2022-11-05T10:29:49.380Z,107
2022-11-05T10:30:53.348Z,113
2022-11-05T10:31:58.016Z,105
2022-11-05T10:33:02.605Z,110
2022-11-05T10:34:07.069Z,110
2022-11-05T10:35:11.733Z,114
2022-11-05T10:36:16.197Z,111
2022-11-05T10:37:26.457Z,111
2022-11-05T10:38:31.029Z,114
2022-11-05T10:39:35.617Z,107
2022-11-05T10:40:40.278Z,126
2022-11-05T10:41:55.066Z,113
2022-11-05T10:43:07.374Z,110
2022-11-05T10:44:18.900Z,113
2022-11-05T10:45:26.476Z,121
2022-11-05T10:46:41.763Z,113
2022-11-05T10:47:45.902Z,112
2022-11-05T10:49:00.738Z,110
2022-11-05T10:50:05.221Z,118
2022-11-05T10:51:09.881Z,111
2022-11-05T10:52:14.697Z,110
2022-11-05T10:53:22.178Z,109
2022-11-05T10:54:31.617Z,110
2022-11-05T10:55:36.202Z,113
2022-11-05T10:56:43.435Z,113
2022-11-05T10:57:48.529Z,112
2022-11-05T10:58:53.110Z,111
2022-11-05T10:59:57.713Z,118
2022-11-05T11:01:12.520Z,121
2022-11-05T11:02:17.140Z,114
2022-11-05T11:03:21.558Z,124
2022-11-05T11:04:37.990Z,120
2022-11-05T11:05:40.921Z,116
2022-11-05T11:06:45.514Z,116
2022-11-05T11:07:52.758Z,121
2022-11-05T11:08:57.245Z,111
2022-11-05T11:10:01.953Z,111
2022-11-05T11:11:06.441Z,110
2022-11-05T11:12:11.042Z,108
2022-11-05T11:13:15.598Z,113
2022-11-05T11:14:19.877Z,114
2022-11-05T11:15:24.145Z,112
2022-11-05T11:16:28.925Z,106
2022-11-05T11:17:33.373Z,108
2022-11-05T11:18:40.165Z,116
2022-11-05T11:19:42.483Z,109
2022-11-05T11:20:46.572Z,107
2022-11-05T11:21:51.217Z,101
2022-11-05T11:23:05.965Z,107
2022-11-05T11:24:15.529Z,110
2022-11-05T11:25:19.849Z,111
2022-11-05T11:26:24.157Z,109
2022-11-05T11:27:34.046Z,110
2022-11-05T11:28:38.689Z,111
2022-11-05T11:29:49.295Z,116
2022-11-05T11:30:50.249Z,109
2022-11-05T11:31:54.590Z,110
2022-11-05T11:32:59.125Z,110
2022-11-05T11:34:06.089Z,114
2022-11-05T11:35:13.222Z,120
2022-11-05T11:36:23.802Z,119
2022-11-05T11:37:27.924Z,111
2022-11-05T11:38:32.520Z,117
2022-11-05T11:39:37.153Z,117
2022-11-05T11:40:41.771Z,116
2022-11-05T11:41:46.247Z,117
2022-11-05T11:42:50.426Z,113
2022-11-05T11:43:54.993Z,115
2022-11-05T11:45:02.639Z,106
2022-11-05T11:46:11.186Z,120
2022-11-05T11:47:14.421Z,116
2022-11-05T11:48:19.071Z,121
2022-11-05T11:49:23.434Z,113
2022-11-05T11:50:33.373Z,109
2022-11-05T11:51:46.853Z,112
2022-11-05T11:52:48.543Z,106
2022-11-05T11:53:53.136Z,108
2022-11-05T11:55:02.195Z,117
2022-11-05T11:56:12.134Z,114
2022-11-05T11:57:16.667Z,107
2022-11-05T11:58:26.246Z,101
2022-11-05T12:00:02.349Z,108
2022-11-05T12:00:40.689Z,108
2022-11-05T12:01:45.144Z,110
2022-11-05T12:03:00.461Z,110
2022-11-05T12:04:07.763Z,105
2022-11-05T12:05:17.393Z,108
2022-11-05T12:06:26.861Z,104
2022-11-05T12:07:36.709Z,114
2022-11-05T12:08:54.287Z,112
2022-11-05T12:09:59.433Z,118
2022-11-05T12:11:09.145Z,116
2022-11-05T12:12:19.010Z,110
2022-11-05T12:13:23.338Z,119
2022-11-05T12:14:33.158Z,115
2022-11-05T12:15:42.813Z,114
2022-11-05T12:16:50.531Z,117
2022-11-05T12:18:05.264Z,117
2022-11-05T12:19:14.933Z,120
2022-11-05T12:20:19.530Z,107
2022-11-05T12:21:51.217Z,115
2022-11-05T12:22:43.777Z,115
2022-11-05T12:23:58.745Z,108
2022-11-05T12:25:10.897Z,108
2022-11-05T12:26:18.276Z,109
2022-11-05T12:27:28.182Z,104
2022-11-05T12:29:05.033Z,98
2022-11-05T12:29:52.585Z,92
2022-11-05T12:31:07.517Z,98
2022-11-05T12:32:17.203Z,95
2022-11-05T12:33:26.620Z,94
2022-11-05T12:34:36.467Z,95
2022-11-05T12:35:53.415Z,90
2022-11-05T12:36:56.885Z,95
2022-11-05T12:38:09.453Z,87
2022-11-05T12:39:19.240Z,84
2022-11-05T12:40:28.663Z,86
2022-11-05T12:41:39.093Z,78
2022-11-05T12:42:53.829Z,77
2022-11-05T12:44:06.489Z,76
2022-11-05T12:45:21.382Z,88
2022-11-05T12:46:30.965Z,77
2022-11-05T12:47:38.058Z,73
2022-11-05T12:48:50.840Z,78
2022-11-05T12:50:02.936Z,75
2022-11-05T12:51:12.913Z,64
2022-11-05T12:52:17.330Z,60
2022-11-05T12:53:26.757Z,62
2022-11-05T12:54:36.217Z,53
2022-11-05T12:55:48.654Z,50
2022-11-05T12:56:50.275Z,51
2022-11-05T12:57:54.349Z,50
2022-11-05T12:58:58.602Z,46
2022-11-05T13:00:08.417Z,43
2022-11-05T13:01:15.974Z,45
2022-11-05T13:02:25.497Z,34
2022-11-05T13:03:40.113Z,35
2022-11-05T13:04:50.051Z,32
2022-11-05T13:05:54.487Z,25
2022-11-05T13:06:59.101Z,25
2022-11-05T13:08:03.689Z,25
2022-11-05T13:09:13.417Z,34
2022-11-05T13:10:17.977Z,34
2022-11-05T13:11:27.447Z,34
2022-11-05T13:12:34.701Z,32
2022-11-05T13:13:39.337Z,25
2022-11-05T13:14:43.813Z,40
2022-11-05T13:15:53.473Z,32
2022-11-05T13:17:00.704Z,25
2022-11-05T13:18:10.309Z,25
2022-11-05T13:19:14.513Z,27
2022-11-05T13:20:28.936Z,30
2022-11-05T13:21:33.119Z,32
2022-11-05T13:22:37.684Z,26
2022-11-05T13:23:47.312Z,26
2022-11-05T13:24:54.385Z,26
2022-11-05T13:25:59.257Z,37
2022-11-05T13:27:06.650Z,35
2022-11-05T13:28:16.305Z,25
2022-11-05T13:29:30.961Z,29
2022-11-05T13:30:35.088Z,32
2022-11-05T13:31:39.280Z,25
2022-11-05T13:32:43.804Z,29
2022-11-05T13:33:48.496Z,37
2022-11-05T13:34:53.462Z,30
2022-11-05T13:35:57.702Z,27
2022-11-05T13:37:15.069Z,29
2022-11-05T13:38:24.525Z,32
2022-11-05T13:39:34.193Z,30
2022-11-05T13:40:43.918Z,34
2022-11-05T13:41:56.309Z,30
2022-11-05T13:43:11.330Z,26
2022-11-05T13:44:23.844Z,29
2022-11-05T13:45:33.317Z,28
2022-11-05T13:46:48.036Z,25
2022-11-05T13:48:02.785Z,27
2022-11-05T13:49:17.706Z,34
2022-11-05T13:50:22.413Z,34
2022-11-05T13:51:39.267Z,33
2022-11-05T13:52:51.769Z,28
2022-11-05T13:54:01.341Z,26
2022-11-05T13:55:13.685Z,25
2022-11-05T13:56:25.710Z,31
2022-11-05T13:57:40.534Z,29
2022-11-05T13:58:50.424Z,32
2022-11-05T14:00:00.988Z,32
2022-11-05T14:01:08.142Z,25
2022-11-05T14:02:17.852Z,32
2022-11-05T14:03:21.861Z,25
2022-11-05T14:04:26.253Z,28
2022-11-05T14:05:33.388Z,31
2022-11-05T14:06:37.957Z,26
2022-11-05T14:07:42.518Z,29
2022-11-05T14:08:46.665Z,25
2022-11-05T14:09:51.290Z,33
2022-11-05T14:11:00.932Z,27
2022-11-05T14:12:05.550Z,25
2022-11-05T14:13:20.374Z,33
2022-11-05T14:14:24.784Z,36
2022-11-05T14:15:29.349Z,25
2022-11-05T14:16:34.022Z,37
2022-11-05T14:17:41.617Z,30
2022-11-05T14:18:53.803Z,33
2022-11-05T14:20:08.560Z,30
2022-11-05T14:21:23.501Z,35
2022-11-05T14:22:27.981Z,25
2022-11-05T14:23:32.517Z,35
2022-11-05T14:24:42.277Z,36
2022-11-05T14:25:46.765Z,43
2022-11-05T14:26:54.005Z,36
2022-11-05T14:28:01.728Z,56
2022-11-05T14:29:06.188Z,57
2022-11-05T14:30:10.833Z,48
2022-11-05T14:31:41.360Z,52
2022-11-05T14:32:35.173Z,48
2022-11-05T14:33:42.944Z,41
2022-11-05T14:34:53.578Z,63
2022-11-05T14:36:03.249Z,55
2022-11-05T14:37:18.009Z,58
2022-11-05T14:38:22.896Z,54
2022-11-05T14:39:27.073Z,49
2022-11-05T14:40:31.891Z,63
2022-11-05T14:41:41.273Z,48
2022-11-05T14:42:54.042Z,58
2022-11-05T14:43:58.790Z,61
2022-11-05T14:45:03.168Z,65
2022-11-05T14:46:17.918Z,54
2022-11-05T14:47:21.960Z,59
2022-11-05T14:48:26.527Z,59
2022-11-05T14:49:36.688Z,58
2022-11-05T14:50:41.120Z,59
2022-11-05T14:51:45.496Z,57
2022-11-05T14:52:52.716Z,56
2022-11-05T14:53:57.120Z,64
2022-11-05T14:55:09.343Z,66
2022-11-05T14:56:13.760Z,61
2022-11-05T14:57:17.850Z,76
2022-11-05T14:58:32.606Z,68
2022-11-05T14:59:37.145Z,63
2022-11-05T15:00:46.809Z,62
2022-11-05T15:01:51.585Z,60
2022-11-05T15:02:55.996Z,66
2022-11-05T15:04:03.070Z,55
2022-11-05T15:05:17.804Z,67
2022-11-05T15:06:30.028Z,61
2022-11-05T15:07:34.612Z,60
2022-11-05T15:08:39.244Z,63
2022-11-05T15:09:49.389Z,67
2022-11-05T15:10:54.145Z,65
2022-11-05T15:12:08.752Z,72
2022-11-05T15:13:21.077Z,69
2022-11-05T15:14:28.332Z,67
2022-11-05T15:15:35.660Z,64
2022-11-05T15:16:39.821Z,61
2022-11-05T15:17:45.468Z,65
2022-11-05T15:19:00.040Z,66
2022-11-05T15:20:05.096Z,61
2022-11-05T15:21:14.773Z,58
2022-11-05T15:22:19.149Z,70
2022-11-05T15:23:26.630Z,64
2022-11-05T15:24:31.210Z,70
2022-11-05T15:25:35.682Z,68
2022-11-05T15:26:42.939Z,64
2022-11-05T15:27:47.456Z,62
2022-11-05T15:28:57.120Z,71
2022-11-05T15:30:01.220Z,72
2022-11-05T15:31:06.012Z,70
2022-11-05T15:32:15.353Z,65
2022-11-05T15:33:19.447Z,72
2022-11-05T15:34:23.686Z,73
2022-11-05T15:35:28.221Z,73
2022-11-05T15:36:32.830Z,72